イースター島 の空港の天気 - METARとTAF

マタベリ国際空港 ( SCIP / IPC ) - チリ イースター島
飛行場実況気象(Metar)
観測時間04/26 06:00 EAST (04/26 11:00 UTC)
風向・風速西南西 2m/s
視程8000m
天気現象
全天の4割程度の雲 雲底高度 460m
全天を覆う雲 雲底高度 1520m
気温19℃
湿度94%
気圧1016hPa
METARSCIP 261100Z 24004KT 180V270 8000 RA SCT015 OVC050 19/18 Q1016 NOSIG
過去の天気等 Google飛行場航空写真 Wunderground天気予報

過去48時間のMETAR

飛行場予報(TAF)
発表時間: 4/25 23:45 EAST (4/26 04:45 UTC)
予報対象時間: 26日1時 EAST ~ 27日1時 EAST
風向・風速西北西 4m/s
視程10km以上
全天の4割程度の雲 雲底高度 760m
全天の8割程度の雲 雲底高度 1,830m
全天の8割程度の雲 雲底高度 3,960m
26日2時 EAST ~ 26日4時 EAST に徐々に
風向・風速西北西 6m/s
視程5,000m
天気現象弱いしゅう雨
全天の8割程度の雲 雲底高度 610m
全天を覆う雲 雲底高度 910m
26日8時 EAST ~ 26日15時 EAST に一時的に
風向・風速西 9m/s
視程3,500m
26日23時 EAST ~ 27日1時 EAST に一時的に
風向・風速西 3m/s
視程5,000m
天気現象弱いしゅう雨
全天の4割程度の雲 雲底高度 460m
全天の8割程度の雲 雲底高度 910m
TAF SCIP 260445Z 2606/2706 30007KT 9999 SCT025 BKN060 BKN130 TN21/2611Z TX23/2618Z
BECMG 2607/2609 30012KT 5000 -SHRA BKN020 OVC030
TEMPO 2613/2620 27017KT 3500 +SHRA/RA SCT010 OVC020
TEMPO 2704/2706 27005KT 5000 -SHRA SCT015 BKN030